Time;durP1;ratioP1;P1;durP2;ratioP2;P2;SDS_P1;SDS_P2;PMS_P1;PMS_P2;Temp;Humidity;BMP_temperature;BMP_pressure;BME280_temperature;BME280_humidity;BME280_pressure;Samples;Min_cycle;Max_cycle;Signal;HPM_P1;HPM_P2
2023/02/06 00:00:37;;;;;;;;;;;;;;;0.14;58.94;100556.31;5093331;28;20407;-42
2023/02/06 00:03:02;;;;;;;;;;;;;;;0.07;59.88;100560.31;5093299;28;19991;-42
2023/02/06 00:05:28;;;;;;;;;;;;;;;0.09;59.43;100564.47;5093330;28;19912;-42
2023/02/06 00:07:53;;;;;;;;;;;;;;;0.17;58.83;100570.00;5093152;28;20033;-42
2023/02/06 00:10:18;;;;;;;;;;;;;;;0.24;58.61;100572.13;5093619;28;20098;-42
2023/02/06 00:12:44;;;;;;;;;;;;;;;-0.12;58.12;100574.78;5093038;28;20364;-42
2023/02/06 00:15:09;;;;;;;;;;;;;;;-0.15;59.30;100564.56;5092908;28;20015;-41
2023/02/06 00:17:35;;;;;;;;;;;;;;;-0.38;59.65;100566.25;5093063;28;19919;-41
2023/02/06 00:20:01;;;;;;;;;;;;;;;-0.32;59.44;100562.38;5092878;28;19920;-41
2023/02/06 00:22:26;;;;;;;;;;;;;;;-0.08;59.25;100568.34;5092920;28;19927;-41
2023/02/06 00:24:51;;;;;;;;;;;;;;;0.08;58.30;100569.84;5092834;28;19912;-41
2023/02/06 00:27:16;;;;;;;;;;;;;;;0.04;57.71;100573.63;5092627;28;20285;-41
2023/02/06 00:29:42;;;;;;;;;;;;;;;-0.01;57.38;100572.19;5092753;28;19923;-41
2023/02/06 00:32:07;;;;;;;;;;;;;;;-0.19;58.20;100576.19;5092945;28;19912;-41
2023/02/06 00:34:32;;;;;;;;;;;;;;;-0.22;58.19;100573.81;5092938;28;20364;-41
2023/02/06 00:36:57;;;;;;;;;;;;;;;-0.24;58.60;100579.16;5092805;28;19919;-41
2023/02/06 00:39:23;;;;;;;;;;;;;;;-0.29;59.26;100570.78;5092629;28;19961;-41
2023/02/06 00:41:49;;;;;;;;;;;;;;;-0.17;59.07;100581.28;5092659;28;19913;-41
2023/02/06 00:44:14;;;;;;;;;;;;;;;0.06;58.16;100579.56;5092313;28;20444;-41
2023/02/06 00:46:39;;;;;;;;;;;;;;;-0.53;60.09;100581.28;5092474;28;19916;-41
2023/02/06 00:49:05;;;;;;;;;;;;;;;-0.68;60.79;100577.16;5092320;28;20322;-41
2023/02/06 00:51:30;;;;;;;;;;;;;;;-0.60;60.10;100577.44;5092427;28;20001;-41
2023/02/06 00:53:55;;;;;;;;;;;;;;;-0.47;59.61;100590.47;5092213;28;20291;-41
2023/02/06 00:56:20;;;;;;;;;;;;;;;-0.30;57.77;100591.84;5092409;28;19915;-42
2023/02/06 00:58:46;;;;;;;;;;;;;;;-0.24;58.01;100580.94;5091647;28;19943;-41
2023/02/06 01:01:11;;;;;;;;;;;;;;;-0.31;57.81;100587.56;5091877;28;20023;-41
2023/02/06 01:03:36;;;;;;;;;;;;;;;-0.27;57.32;100586.38;5092014;28;19923;-41
2023/02/06 01:06:02;;;;;;;;;;;;;;;-0.17;57.09;100581.28;5092321;28;19983;-41
2023/02/06 01:08:27;;;;;;;;;;;;;;;-0.39;59.13;100585.50;5092499;28;20350;-41
2023/02/06 01:10:52;;;;;;;;;;;;;;;-0.18;58.20;100575.25;5091941;28;20411;-41
2023/02/06 01:13:18;;;;;;;;;;;;;;;-0.37;56.95;100573.16;5092223;28;19912;-42
2023/02/06 01:15:43;;;;;;;;;;;;;;;-0.40;56.41;100574.22;5092302;28;19924;-42
2023/02/06 01:18:08;;;;;;;;;;;;;;;-0.35;56.59;100575.66;5092123;28;20405;-42
2023/02/06 01:20:34;;;;;;;;;;;;;;;-0.37;56.50;100569.69;5092035;28;20324;-42
2023/02/06 01:22:59;;;;;;;;;;;;;;;-0.34;56.74;100575.53;5091877;28;19916;-42
2023/02/06 01:25:24;;;;;;;;;;;;;;;-0.47;57.66;100575.59;5091333;28;19919;-42
2023/02/06 01:27:49;;;;;;;;;;;;;;;-0.45;57.11;100567.66;5091735;28;19958;-42
2023/02/06 01:30:15;;;;;;;;;;;;;;;-0.39;57.81;100561.97;5091878;28;19968;-42
2023/02/06 01:32:40;;;;;;;;;;;;;;;-0.40;59.02;100574.22;5091701;28;20418;-42
2023/02/06 01:35:07;;;;;;;;;;;;;;;-0.47;58.02;100570.38;5091963;28;19920;-42
2023/02/06 01:37:32;;;;;;;;;;;;;;;-0.24;57.71;100576.53;5091700;28;19912;-42
2023/02/06 01:39:57;;;;;;;;;;;;;;;-0.22;57.94;100571.19;5091613;28;19919;-42
2023/02/06 01:42:23;;;;;;;;;;;;;;;-0.12;57.87;100572.16;5091446;28;19950;-42
2023/02/06 01:44:48;;;;;;;;;;;;;;;-0.35;58.44;100563.41;5091571;28;19934;-41
2023/02/06 01:47:13;;;;;;;;;;;;;;;-0.49;58.81;100563.59;5091355;28;20433;-42
2023/02/06 01:49:44;;;;;;;;;;;;;;;-0.73;59.57;100553.13;5091424;28;19995;-43
2023/02/06 01:52:21;;;;;;;;;;;;;;;-0.77;61.10;100556.91;5090892;28;19924;-41
2023/02/06 01:54:50;;;;;;;;;;;;;;;-0.71;60.65;100554.69;5091286;28;19918;-41
2023/02/06 01:57:15;;;;;;;;;;;;;;;-0.42;60.45;100556.94;5091023;28;19913;-41
2023/02/06 01:59:44;;;;;;;;;;;;;;;-0.52;60.76;100554.19;5091205;28;19918;-42
2023/02/06 02:02:10;;;;;;;;;;;;;;;-0.54;60.98;100557.84;5091216;28;19945;-42
2023/02/06 02:04:35;;;;;;;;;;;;;;;-0.34;60.64;100556.38;5091140;28;19912;-42
2023/02/06 02:07:21;;;;;;;;;;;;;;;-0.38;60.73;100562.78;5090873;28;19916;-42
2023/02/06 02:09:46;;;;;;;;;;;;;;;-0.49;60.73;100564.41;5090704;28;19922;-42
2023/02/06 02:12:12;;;;;;;;;;;;;;;-0.57;60.82;100561.53;5090782;28;19912;-42
2023/02/06 02:14:39;;;;;;;;;;;;;;;-0.73;61.94;100568.81;5090851;28;20337;-42
2023/02/06 02:17:23;;;;;;;;;;;;;;;-0.76;60.89;100559.44;5090827;28;19912;-42
2023/02/06 02:19:49;;;;;;;;;;;;;;;-0.84;61.41;100564.34;5090875;28;19928;-42
2023/02/06 02:22:23;;;;;;;;;;;;;;;-0.67;60.86;100570.97;5090925;28;19916;-42
2023/02/06 02:24:48;;;;;;;;;;;;;;;-1.13;61.73;100569.88;5090758;28;19992;-42
2023/02/06 02:27:20;;;;;;;;;;;;;;;-1.15;63.27;100571.75;5090884;28;20391;-41
2023/02/06 02:30:09;;;;;;;;;;;;;;;-0.77;61.33;100569.97;5090712;28;19913;-42
2023/02/06 02:32:53;;;;;;;;;;;;;;;-0.61;61.07;100570.53;5090658;28;20341;-42
2023/02/06 02:35:27;;;;;;;;;;;;;;;-0.43;61.05;100574.44;5091445;28;19942;-42
2023/02/06 02:38:12;;;;;;;;;;;;;;;-0.20;60.65;100577.13;5091386;28;20435;-42
2023/02/06 02:40:50;;;;;;;;;;;;;;;-0.33;61.05;100585.03;5091349;28;20322;-42
2023/02/06 02:43:32;;;;;;;;;;;;;;;-0.53;62.06;100580.44;5082876;28;19970;-42
2023/02/06 02:46:03;;;;;;;;;;;;;;;-0.42;61.95;100586.56;5071307;28;19923;-42
2023/02/06 02:48:32;;;;;;;;;;;;;;;-0.45;61.51;100584.16;5070809;28;19917;-42
2023/02/06 02:50:58;;;;;;;;;;;;;;;-0.32;61.08;100586.72;5070641;28;20456;-42
2023/02/06 02:53:24;;;;;;;;;;;;;;;-0.33;60.92;100586.84;5070872;28;19935;-43
2023/02/06 02:55:49;;;;;;;;;;;;;;;-0.49;61.76;100592.38;5070925;28;19963;-41
2023/02/06 02:58:17;;;;;;;;;;;;;;;-0.38;61.47;100586.31;5071255;28;19952;-42
2023/02/06 03:00:44;;;;;;;;;;;;;;;-0.35;60.31;100586.13;5071017;28;19913;-42
2023/02/06 03:03:11;;;;;;;;;;;;;;;-0.26;60.38;100583.66;5071075;28;19999;-42
2023/02/06 03:05:41;;;;;;;;;;;;;;;-0.26;60.23;100586.28;5071006;28;19970;-42
2023/02/06 03:08:14;;;;;;;;;;;;;;;-0.40;61.08;100579.44;5070949;28;19995;-42
2023/02/06 03:10:40;;;;;;;;;;;;;;;-0.33;61.26;100581.59;5070854;28;19917;-42
2023/02/06 03:13:08;;;;;;;;;;;;;;;-0.29;60.82;100578.63;5071009;28;19931;-42
2023/02/06 03:15:48;;;;;;;;;;;;;;;-0.40;61.10;100579.44;5070951;28;19912;-42
2023/02/06 03:18:33;;;;;;;;;;;;;;;-0.40;62.29;100574.22;5070770;28;19916;-42
2023/02/06 03:21:00;;;;;;;;;;;;;;;-0.47;61.39;100577.41;5070430;28;19956;-42
2023/02/06 03:23:28;;;;;;;;;;;;;;;-0.22;61.37;100574.63;5073779;28;19912;-42
2023/02/06 03:25:54;;;;;;;;;;;;;;;-0.23;60.49;100585.19;5074659;28;19967;-42
2023/02/06 03:28:22;;;;;;;;;;;;;;;-0.42;60.70;100583.97;5074563;28;20363;-42
2023/02/06 03:30:49;;;;;;;;;;;;;;;-0.62;61.82;100585.38;5091119;28;19927;-42
2023/02/06 03:33:18;;;;;;;;;;;;;;;-0.48;61.30;100592.22;5094681;28;19912;-42
2023/02/06 03:35:43;;;;;;;;;;;;;;;-0.37;61.80;100593.25;5094629;28;19981;-42
2023/02/06 03:38:08;;;;;;;;;;;;;;;-0.41;61.42;100590.00;5094626;28;20292;-42
2023/02/06 03:40:35;;;;;;;;;;;;;;;-0.37;60.24;100594.06;5094593;28;19916;-42
2023/02/06 03:43:01;;;;;;;;;;;;;;;-0.38;61.47;100589.81;5088354;28;20311;-42
2023/02/06 03:45:35;;;;;;;;;;;;;;;-0.34;61.07;100598.22;5073958;28;19912;-42
2023/02/06 03:48:03;;;;;;;;;;;;;;;-0.62;60.22;100600.25;5073900;28;19916;-42
2023/02/06 03:50:30;;;;;;;;;;;;;;;-0.58;61.92;100606.09;5074150;28;19912;-42
2023/02/06 03:52:56;;;;;;;;;;;;;;;-0.67;61.60;100597.94;5073811;28;19913;-42
2023/02/06 03:55:23;;;;;;;;;;;;;;;-0.73;60.77;100598.41;5073963;28;19935;-42
2023/02/06 03:57:54;;;;;;;;;;;;;;;-0.74;61.81;100601.97;5073828;28;19916;-42
2023/02/06 04:00:19;;;;;;;;;;;;;;;-0.64;60.80;100609.97;5073869;28;20289;-42
2023/02/06 04:02:46;;;;;;;;;;;;;;;-0.61;60.79;100610.59;5073830;28;19923;-42
2023/02/06 04:05:12;;;;;;;;;;;;;;;-0.94;61.44;100613.81;5073736;28;19995;-41
2023/02/06 04:07:37;;;;;;;;;;;;;;;-1.05;61.74;100613.75;5074027;28;19964;-42
2023/02/06 04:10:03;;;;;;;;;;;;;;;-1.02;62.52;100614.34;5074230;28;20390;-41
2023/02/06 04:12:28;;;;;;;;;;;;;;;-0.88;61.24;100621.22;5074030;28;19943;-41
2023/02/06 04:14:53;;;;;;;;;;;;;;;-1.02;61.17;100614.34;5073645;28;19913;-42
2023/02/06 04:17:19;;;;;;;;;;;;;;;-1.03;62.54;100622.31;5073617;28;19955;-42
2023/02/06 04:19:44;;;;;;;;;;;;;;;-1.65;61.76;100620.47;5073321;28;19917;-42
2023/02/06 04:22:11;;;;;;;;;;;;;;;-1.59;63.69;100618.25;5073395;28;20545;-42
2023/02/06 04:24:39;;;;;;;;;;;;;;;-1.68;62.10;100621.50;5073451;28;19916;-42
2023/02/06 04:27:04;;;;;;;;;;;;;;;-1.51;61.19;100625.56;5072959;28;20126;-42
2023/02/06 04:29:30;;;;;;;;;;;;;;;-1.31;60.25;100632.06;5073140;28;20046;-42
2023/02/06 04:32:00;;;;;;;;;;;;;;;-1.72;60.57;100622.63;5085813;28;19924;-42
2023/02/06 04:34:26;;;;;;;;;;;;;;;-1.38;59.74;100620.34;5092221;28;19912;-42
2023/02/06 04:36:51;;;;;;;;;;;;;;;-1.68;59.97;100611.03;5093473;28;19912;-42
2023/02/06 04:39:16;;;;;;;;;;;;;;;-1.67;59.31;100617.13;5093099;28;19941;-42
2023/02/06 04:41:42;;;;;;;;;;;;;;;-1.82;58.34;100619.81;5093362;28;19919;-41
2023/02/06 04:44:07;;;;;;;;;;;;;;;-1.78;58.47;100623.88;5077842;28;19916;-42
2023/02/06 04:46:32;;;;;;;;;;;;;;;-1.61;57.92;100612.31;5073021;28;20336;-42
2023/02/06 04:48:57;;;;;;;;;;;;;;;-1.89;57.50;100615.09;5078063;28;19916;-42
2023/02/06 04:51:23;;;;;;;;;;;;;;;-1.89;57.98;100615.94;5093007;28;20290;-41
2023/02/06 04:53:48;;;;;;;;;;;;;;;-1.67;56.33;100619.75;5093027;28;19947;-42
2023/02/06 04:56:13;;;;;;;;;;;;;;;-1.65;56.29;100621.28;5092833;28;20411;-42
2023/02/06 04:58:39;;;;;;;;;;;;;;;-1.65;57.26;100626.50;5093149;28;19923;-42
2023/02/06 05:01:05;;;;;;;;;;;;;;;-1.92;56.23;100636.16;5092945;28;20305;-42
2023/02/06 05:03:30;;;;;;;;;;;;;;;-2.03;57.21;100632.50;5092878;28;19935;-42
2023/02/06 05:05:58;;;;;;;;;;;;;;;-2.20;58.34;100638.81;5092342;28;20295;-41
2023/02/06 05:08:23;;;;;;;;;;;;;;;-2.13;57.72;100648.84;5092680;28;19923;-41
2023/02/06 05:10:51;;;;;;;;;;;;;;;-2.00;58.27;100653.19;5092336;28;19912;-41
2023/02/06 05:13:16;;;;;;;;;;;;;;;-2.01;58.07;100659.31;5092184;28;19996;-41
2023/02/06 05:15:41;;;;;;;;;;;;;;;-1.73;57.62;100664.50;5090642;28;20360;-42
2023/02/06 05:18:07;;;;;;;;;;;;;;;-1.86;57.59;100661.88;5092295;28;19980;-41
2023/02/06 05:20:32;;;;;;;;;;;;;;;-2.26;59.28;100661.88;5092068;28;20288;-41
2023/02/06 05:22:57;;;;;;;;;;;;;;;-2.77;59.90;100671.09;5091758;28;20305;-42
2023/02/06 05:25:23;;;;;;;;;;;;;;;-2.50;60.65;100661.66;5092388;28;19923;-42
2023/02/06 05:27:49;;;;;;;;;;;;;;;-2.40;58.52;100671.41;5091918;28;19965;-41
2023/02/06 05:30:14;;;;;;;;;;;;;;;-1.90;58.06;100671.69;5091908;28;20002;-42
2023/02/06 05:32:40;;;;;;;;;;;;;;;-1.68;57.72;100678.91;5094402;28;20031;-42
2023/02/06 05:35:06;;;;;;;;;;;;;;;-1.74;55.85;100683.72;5110618;28;19912;-42
2023/02/06 05:37:31;;;;;;;;;;;;;;;-1.85;56.96;100690.47;5091601;28;20014;-42
2023/02/06 05:39:56;;;;;;;;;;;;;;;-2.05;56.16;100683.94;5091995;28;19934;-42
2023/02/06 05:42:21;;;;;;;;;;;;;;;-2.30;58.16;100691.66;5091954;28;20007;-42
2023/02/06 05:44:47;;;;;;;;;;;;;;;-2.24;57.48;100697.31;5091266;28;19916;-42
2023/02/06 05:47:12;;;;;;;;;;;;;;;-1.94;56.69;100695.44;5091097;28;19965;-42
2023/02/06 05:49:37;;;;;;;;;;;;;;;-1.91;57.41;100706.53;5090622;28;19940;-42
2023/02/06 05:52:03;;;;;;;;;;;;;;;-1.92;56.70;100714.44;5089673;28;20292;-42
2023/02/06 05:54:28;;;;;;;;;;;;;;;-1.99;57.13;100712.22;5094044;28;19916;-42
2023/02/06 05:56:55;;;;;;;;;;;;;;;-2.03;58.33;100715.16;5110520;28;20328;-36
2023/02/06 05:59:21;;;;;;;;;;;;;;;-2.06;57.31;100713.56;5109942;28;19962;-35
2023/02/06 06:01:46;;;;;;;;;;;;;;;-1.91;56.65;100718.75;5110770;28;19955;-42
2023/02/06 06:04:11;;;;;;;;;;;;;;;-2.39;58.85;100714.78;5110796;28;20006;-42
2023/02/06 06:06:37;;;;;;;;;;;;;;;-1.99;57.88;100714.84;5110579;28;19915;-41
2023/02/06 06:09:02;;;;;;;;;;;;;;;-1.94;57.56;100722.41;5101585;28;19920;-42
2023/02/06 06:11:29;;;;;;;;;;;;;;;-1.93;56.66;100725.84;5097954;28;20358;-41
2023/02/06 06:13:54;;;;;;;;;;;;;;;-2.34;57.69;100730.16;5091539;28;19913;-41
2023/02/06 06:16:19;;;;;;;;;;;;;;;-2.22;58.23;100731.13;5091445;28;19969;-42
2023/02/06 06:18:44;;;;;;;;;;;;;;;-1.99;56.93;100735.72;5091802;28;19916;-41
2023/02/06 06:21:10;;;;;;;;;;;;;;;-1.92;56.64;100738.78;5091454;28;19931;-42
2023/02/06 06:23:35;;;;;;;;;;;;;;;-0.88;55.40;100738.84;5091631;28;19938;-41
2023/02/06 06:26:00;;;;;;;;;;;;;;;-1.10;53.89;100738.66;5091465;28;19912;-42
2023/02/06 06:28:26;;;;;;;;;;;;;;;-1.60;54.23;100736.69;5090107;28;19916;-41
2023/02/06 06:30:58;;;;;;;;;;;;;;;-1.25;53.49;100745.72;5089545;28;20385;-42
2023/02/06 06:33:23;;;;;;;;;;;;;;;-1.31;54.26;100738.31;5089375;28;19912;-41
2023/02/06 06:35:49;;;;;;;;;;;;;;;-1.21;53.23;100742.81;5089826;28;20304;-41
2023/02/06 06:38:14;;;;;;;;;;;;;;;-1.08;52.77;100736.75;5089644;28;19951;-41
2023/02/06 06:40:40;;;;;;;;;;;;;;;-0.82;51.42;100743.66;5089871;28;20350;-43
2023/02/06 06:43:05;;;;;;;;;;;;;;;-0.77;51.00;100747.72;5089241;28;19912;-42
2023/02/06 06:45:30;;;;;;;;;;;;;;;-0.56;50.94;100743.63;5092867;28;19966;-36
2023/02/06 06:47:55;;;;;;;;;;;;;;;-0.68;50.68;100752.31;5084418;28;20482;-37
2023/02/06 06:50:21;;;;;;;;;;;;;;;-0.44;50.45;100753.25;5081906;28;19916;-35
2023/02/06 06:52:46;;;;;;;;;;;;;;;-0.08;49.21;100748.09;5086230;28;20409;-36
2023/02/06 06:55:11;;;;;;;;;;;;;;;0.34;48.89;100749.41;5089435;28;20387;-35
2023/02/06 06:57:37;;;;;;;;;;;;;;;0.34;46.56;100765.13;5087329;28;19969;-36
2023/02/06 07:00:03;;;;;;;;;;;;;;;0.11;47.79;100761.53;5087524;28;20287;-39
2023/02/06 07:02:28;;;;;;;;;;;;;;;0.26;47.27;100754.34;5097183;28;19916;-36
2023/02/06 07:04:53;;;;;;;;;;;;;;;0.38;47.22;100763.94;5088126;28;19919;-36
2023/02/06 07:07:19;;;;;;;;;;;;;;;0.36;46.58;100771.06;5087199;28;19984;-35
2023/02/06 07:09:44;;;;;;;;;;;;;;;-0.08;47.88;100761.19;5089324;28;19923;-36
2023/02/06 07:12:09;;;;;;;;;;;;;;;-0.12;47.59;100767.59;5094086;28;19964;-37
2023/02/06 07:14:35;;;;;;;;;;;;;;;-0.16;47.16;100771.38;5103710;28;20003;-35
2023/02/06 07:17:00;;;;;;;;;;;;;;;-0.01;47.01;100778.13;5094606;28;19916;-37
2023/02/06 07:19:25;;;;;;;;;;;;;;;0.06;47.61;100771.50;5095073;28;20376;-35
2023/02/06 07:21:51;;;;;;;;;;;;;;;-0.43;48.01;100778.44;5094501;28;20356;-35
2023/02/06 07:24:16;;;;;;;;;;;;;;;-0.18;47.58;100786.34;5094024;28;19919;-35
2023/02/06 07:26:42;;;;;;;;;;;;;;;-0.31;47.66;100779.34;5092514;28;19916;-34
2023/02/06 07:29:07;;;;;;;;;;;;;;;-0.15;47.38;100779.13;5093957;28;19977;-35
2023/02/06 07:31:32;;;;;;;;;;;;;;;-0.30;48.24;100778.41;5093826;28;19946;-36
2023/02/06 07:33:58;;;;;;;;;;;;;;;-0.31;48.99;100781.13;5093839;28;19963;-35
2023/02/06 07:36:24;;;;;;;;;;;;;;;-0.56;48.38;100782.84;5092971;28;20383;-36
2023/02/06 07:38:49;;;;;;;;;;;;;;;-0.29;47.82;100787.91;5091890;28;20003;-36
2023/02/06 07:41:16;;;;;;;;;;;;;;;-0.24;48.18;100792.84;5091977;28;20359;-35
2023/02/06 07:43:41;;;;;;;;;;;;;;;-0.25;48.05;100783.31;5091745;28;19919;-36
2023/02/06 07:46:07;;;;;;;;;;;;;;;-0.51;48.27;100791.22;5091704;28;19916;-35
2023/02/06 07:48:32;;;;;;;;;;;;;;;-0.48;48.39;100795.38;5091606;28;19924;-35
2023/02/06 07:51:03;;;;;;;;;;;;;;;-0.42;48.20;100793.19;5088266;28;20443;-35
2023/02/06 07:53:28;;;;;;;;;;;;;;;-0.13;48.06;100800.78;5073041;28;19924;-35
2023/02/06 07:55:53;;;;;;;;;;;;;;;0.38;47.02;100808.47;5073013;28;20190;-36
2023/02/06 07:58:18;;;;;;;;;;;;;;;-0.33;47.80;100798.72;5073436;28;20017;-35
2023/02/06 08:00:44;;;;;;;;;;;;;;;-0.20;47.58;100802.97;5072781;28;19939;-35
2023/02/06 08:03:09;;;;;;;;;;;;;;;-0.29;48.08;100797.56;5072631;28;19958;-36
2023/02/06 08:05:36;;;;;;;;;;;;;;;-0.40;48.48;100801.78;5072623;28;20288;-36
2023/02/06 08:08:02;;;;;;;;;;;;;;;-0.21;47.10;100795.22;5071835;28;19917;-36
2023/02/06 08:10:28;;;;;;;;;;;;;;;-0.47;47.92;100799.69;5072345;28;19916;-35
2023/02/06 08:12:53;;;;;;;;;;;;;;;-0.15;47.52;100805.28;5072478;28;19912;-36
2023/02/06 08:15:18;;;;;;;;;;;;;;;-0.09;47.87;100806.63;5072685;28;19912;-36
2023/02/06 08:17:44;;;;;;;;;;;;;;;-0.02;47.20;100802.59;5072783;28;19916;-36
2023/02/06 08:20:10;;;;;;;;;;;;;;;0.41;46.82;100807.38;5072824;28;19921;-36
2023/02/06 08:22:35;;;;;;;;;;;;;;;0.21;47.11;100811.47;5072701;28;19952;-35
2023/02/06 08:25:01;;;;;;;;;;;;;;;0.86;45.58;100814.59;5072752;28;19912;-34
2023/02/06 08:27:26;;;;;;;;;;;;;;;0.98;45.76;100806.63;5072455;28;20335;-35
2023/02/06 08:29:52;;;;;;;;;;;;;;;0.66;46.18;100811.66;5072422;28;19984;-36
2023/02/06 08:32:17;;;;;;;;;;;;;;;0.35;46.16;100816.53;5073082;28;19923;-36
2023/02/06 08:34:43;;;;;;;;;;;;;;;0.52;45.59;100814.47;5072996;28;20362;-34
2023/02/06 08:37:08;;;;;;;;;;;;;;;0.86;46.05;100811.97;5073396;28;19955;-35
2023/02/06 08:39:34;;;;;;;;;;;;;;;1.21;44.38;100813.72;5072930;28;19951;-36
2023/02/06 08:41:59;;;;;;;;;;;;;;;0.87;45.71;100816.25;5072668;28;19920;-35
2023/02/06 08:44:24;;;;;;;;;;;;;;;0.95;44.21;100827.00;5072314;28;19920;-35
2023/02/06 08:46:50;;;;;;;;;;;;;;;1.06;44.81;100819.16;5072648;28;19916;-36
2023/02/06 08:49:17;;;;;;;;;;;;;;;1.77;42.98;100821.59;5072327;28;19913;-35
2023/02/06 08:51:42;;;;;;;;;;;;;;;1.85;42.31;100818.41;5082562;28;20344;-36
2023/02/06 08:54:10;;;;;;;;;;;;;;;2.01;42.46;100816.22;5092715;28;19923;-36
2023/02/06 08:56:36;;;;;;;;;;;;;;;2.31;40.76;100815.56;5092623;28;19985;-36
2023/02/06 08:59:02;;;;;;;;;;;;;;;2.35;41.60;100819.63;5092418;28;20350;-35
2023/02/06 09:01:28;;;;;;;;;;;;;;;2.76;39.72;100806.69;5092715;28;19912;-37
2023/02/06 09:03:55;;;;;;;;;;;;;;;2.74;40.83;100809.44;5091932;28;19915;-36
2023/02/06 09:06:20;;;;;;;;;;;;;;;3.12;39.68;100809.81;5092217;28;19961;-37
2023/02/06 09:08:46;;;;;;;;;;;;;;;3.55;38.60;100819.34;5091989;28;20307;-36
2023/02/06 09:11:14;;;;;;;;;;;;;;;3.07;38.69;100814.66;5091898;28;19908;-36
2023/02/06 09:13:40;;;;;;;;;;;;;;;3.32;37.93;100810.78;5092112;28;19923;-36
2023/02/06 09:16:05;;;;;;;;;;;;;;;3.66;36.54;100811.38;5091972;28;19912;-36
2023/02/06 09:18:31;;;;;;;;;;;;;;;3.42;37.12;100809.03;5091906;28;19920;-36
2023/02/06 09:21:22;;;;;;;;;;;;;;;3.72;36.83;100810.81;5091600;28;20473;-36
2023/02/06 09:23:48;;;;;;;;;;;;;;;3.98;37.08;100809.50;5091593;28;19919;-37
2023/02/06 09:26:16;;;;;;;;;;;;;;;4.10;36.77;100816.34;5090777;28;19912;-36
2023/02/06 09:28:42;;;;;;;;;;;;;;;3.24;37.73;100808.81;5091830;28;19920;-36
2023/02/06 09:31:07;;;;;;;;;;;;;;;2.99;37.93;100803.94;5091691;28;20131;-36
2023/02/06 09:33:32;;;;;;;;;;;;;;;3.58;37.49;100815.59;5091666;28;19912;-36
2023/02/06 09:36:01;;;;;;;;;;;;;;;3.50;37.68;100803.09;5091487;28;19959;-36
2023/02/06 09:38:27;;;;;;;;;;;;;;;3.84;36.60;100803.66;5091406;28;19939;-35
2023/02/06 09:40:53;;;;;;;;;;;;;;;4.28;36.84;100791.03;5091365;28;19919;-36
2023/02/06 09:43:19;;;;;;;;;;;;;;;4.40;36.47;100782.97;5090975;28;20022;-36
2023/02/06 09:45:44;;;;;;;;;;;;;;;3.88;36.30;100784.00;5091622;28;20352;-35
2023/02/06 09:48:21;;;;;;;;;;;;;;;3.62;36.57;100744.16;5091206;28;19965;-35
2023/02/06 09:50:55;;;;;;;;;;;;;;;3.93;36.16;100778.31;5084322;28;20381;-35
2023/02/06 09:53:52;;;;;;;;;;;;;;;4.06;35.92;100772.81;5080121;28;19924;-36
2023/02/06 09:56:30;;;;;;;;;;;;;;;4.41;35.52;100780.19;5080813;28;19919;-36
2023/02/06 09:59:10;;;;;;;;;;;;;;;4.23;35.71;100772.16;5079381;28;19916;-35
2023/02/06 10:01:45;;;;;;;;;;;;;;;4.04;35.53;100774.75;5079876;28;19912;-36
2023/02/06 10:04:22;;;;;;;;;;;;;;;4.53;35.41;100757.16;5077319;28;19912;-35
2023/02/06 10:06:53;;;;;;;;;;;;;;;4.36;34.84;100760.47;5080625;28;19916;-36
2023/02/06 10:09:39;;;;;;;;;;;;;;;4.22;35.41;100746.75;5078595;28;19955;-35
2023/02/06 10:12:09;;;;;;;;;;;;;;;4.59;34.70;100746.06;5069900;28;19986;-36
2023/02/06 10:14:45;;;;;;;;;;;;;;;4.71;35.43;100749.38;5071193;28;19939;-36
2023/02/06 10:17:13;;;;;;;;;;;;;;;4.04;36.07;100746.59;5070781;28;20368;-33
2023/02/06 10:19:46;;;;;;;;;;;;;;;4.24;35.59;100747.44;5076783;28;19959;-35
2023/02/06 10:22:12;;;;;;;;;;;;;;;4.25;34.72;100738.59;5109575;28;19923;-36
2023/02/06 10:24:41;;;;;;;;;;;;;;;4.47;34.69;100745.38;5111804;28;19931;-36
2023/02/06 10:27:12;;;;;;;;;;;;;;;4.70;34.33;100738.00;5111270;28;20498;-36
2023/02/06 10:29:39;;;;;;;;;;;;;;;4.86;34.40;100736.59;5110282;28;19954;-37
2023/02/06 10:32:16;;;;;;;;;;;;;;;4.65;34.39;100731.50;5108498;28;19968;-35
2023/02/06 10:34:51;;;;;;;;;;;;;;;4.25;35.42;100724.59;5109382;28;19911;-36
2023/02/06 10:37:20;;;;;;;;;;;;;;;4.49;35.78;100730.25;5109400;28;20415;-35
2023/02/06 10:39:48;;;;;;;;;;;;;;;3.84;35.36;100718.56;5109355;28;19920;-35
2023/02/06 10:42:32;;;;;;;;;;;;;;;3.96;35.74;100721.91;5108999;28;19951;-37
2023/02/06 10:45:00;;;;;;;;;;;;;;;4.02;35.92;100722.19;5109784;28;19912;-35
2023/02/06 10:47:31;;;;;;;;;;;;;;;4.35;34.94;100717.50;5109130;28;20015;-36
2023/02/06 10:50:00;;;;;;;;;;;;;;;4.44;35.11;100673.66;5109323;28;19919;-35
2023/02/06 10:52:33;;;;;;;;;;;;;;;4.00;36.73;100723.28;5094100;28;19915;-36
2023/02/06 10:55:11;;;;;;;;;;;;;;;4.29;36.46;100716.25;5090789;28;20044;-36
2023/02/06 10:57:36;;;;;;;;;;;;;;;4.29;36.38;100704.88;5090091;28;19912;-36
2023/02/06 11:00:02;;;;;;;;;;;;;;;4.99;35.71;100709.88;5090384;28;19919;-36
2023/02/06 11:02:37;;;;;;;;;;;;;;;5.02;34.66;100712.25;5090526;28;19912;-36
2023/02/06 11:05:08;;;;;;;;;;;;;;;4.92;35.73;100709.66;5090222;28;20375;-36
2023/02/06 11:07:40;;;;;;;;;;;;;;;4.62;35.72;100703.59;5090330;28;19916;-34
2023/02/06 11:10:06;;;;;;;;;;;;;;;4.47;36.16;100703.22;5089763;28;20389;-35
2023/02/06 11:12:36;;;;;;;;;;;;;;;4.30;36.20;100696.00;5090314;28;20010;-35
2023/02/06 11:15:06;;;;;;;;;;;;;;;4.01;36.96;100702.09;5090031;28;19935;-36
2023/02/06 11:17:31;;;;;;;;;;;;;;;3.96;36.89;100696.41;5090147;28;19912;-37
2023/02/06 11:20:19;;;;;;;;;;;;;;;4.40;36.95;100690.72;5087398;28;20038;-36
2023/02/06 11:22:44;;;;;;;;;;;;;;;4.23;36.37;100698.38;5090009;28;19924;-36
2023/02/06 11:25:21;;;;;;;;;;;;;;;4.04;37.15;100698.38;5090318;28;20156;-36
2023/02/06 11:27:47;;;;;;;;;;;;;;;4.06;36.55;100694.63;5090365;28;19916;-36
2023/02/06 11:30:22;;;;;;;;;;;;;;;4.32;36.38;100688.78;5090504;28;20008;-36
2023/02/06 11:32:48;;;;;;;;;;;;;;;4.15;36.31;100692.09;5089803;28;20377;-35
2023/02/06 11:35:13;;;;;;;;;;;;;;;4.25;36.33;100682.41;5089682;28;20064;-36
2023/02/06 11:37:39;;;;;;;;;;;;;;;4.13;36.48;100683.50;5089602;28;19912;-36
2023/02/06 11:40:17;;;;;;;;;;;;;;;4.39;36.71;100676.72;5090091;28;19969;-35
2023/02/06 11:42:51;;;;;;;;;;;;;;;4.39;36.05;100675.88;5090627;28;19912;-35
2023/02/06 11:45:23;;;;;;;;;;;;;;;4.68;36.07;100671.41;5093938;28;19912;-35
2023/02/06 11:47:48;;;;;;;;;;;;;;;4.45;36.08;100675.31;5093620;28;19928;-36
2023/02/06 11:50:13;;;;;;;;;;;;;;;4.64;35.96;100675.28;5093775;28;19912;-36
2023/02/06 11:52:43;;;;;;;;;;;;;;;4.97;35.61;100680.19;5075209;28;19912;-35
2023/02/06 11:55:44;;;;;;;;;;;;;;;4.98;35.55;100680.03;5073740;28;20360;-37
2023/02/06 11:58:12;;;;;;;;;;;;;;;4.69;36.48;100673.06;5061520;28;19994;-36
2023/02/06 12:00:39;;;;;;;;;;;;;;;4.69;35.95;100680.13;5073162;28;19912;-36
2023/02/06 12:03:05;;;;;;;;;;;;;;;4.70;35.65;100673.88;5073295;28;20314;-36
2023/02/06 12:05:37;;;;;;;;;;;;;;;4.54;35.88;100666.56;5073389;28;20003;-36
2023/02/06 12:08:02;;;;;;;;;;;;;;;4.93;35.56;100671.75;5073379;28;19923;-34
2023/02/06 12:10:30;;;;;;;;;;;;;;;5.30;34.38;100668.25;5073130;28;19995;-36
2023/02/06 12:13:04;;;;;;;;;;;;;;;5.47;33.87;100672.75;5073310;28;20333;-36
2023/02/06 12:15:37;;;;;;;;;;;;;;;5.31;33.87;100672.53;5073169;28;20375;-35
2023/02/06 12:18:04;;;;;;;;;;;;;;;5.38;34.09;100672.81;5073101;28;19912;-35
2023/02/06 12:20:31;;;;;;;;;;;;;;;5.21;34.43;100671.75;5073148;28;19977;-37
2023/02/06 12:23:00;;;;;;;;;;;;;;;5.54;33.94;100675.63;5073078;28;19966;-36
2023/02/06 12:25:28;;;;;;;;;;;;;;;4.89;34.84;100679.13;5072696;28;19912;-36
2023/02/06 12:27:56;;;;;;;;;;;;;;;4.42;34.85;100678.25;5072489;28;19916;-36
2023/02/06 12:30:27;;;;;;;;;;;;;;;4.39;35.36;100681.16;5072727;28;20020;-36
2023/02/06 12:32:58;;;;;;;;;;;;;;;4.88;34.15;100673.97;5072332;28;19912;-36
2023/02/06 12:35:33;;;;;;;;;;;;;;;4.83;33.86;100677.03;5072410;28;19969;-37
2023/02/06 12:38:21;;;;;;;;;;;;;;;4.41;34.44;100681.84;5072508;28;19987;-36
2023/02/06 12:40:52;;;;;;;;;;;;;;;4.74;34.54;100677.06;5072213;28;20273;-36
2023/02/06 12:43:18;;;;;;;;;;;;;;;4.61;34.37;100680.03;5072426;28;19912;-35